LGKR Airport Information

Runway Information
Runway 17 Length 7792 ft width 148 ft
Elevation 5 ft Threshold 1348 ft Heading 169
Runway 35 Length 7792 ft Width 148 ft
Elevation 5 ft Threshold 213 ft Heading 349
Airport Frequencies
Type A/G Name KERKIRA RD Frequency 563.7 MHZ
Type APP Name KERKIRA AP Frequency 118.075 MHZ
Type ATIS Name ATIS Frequency 126.35 MHZ
Type TWR Name KERKIRA TW Frequency 120.85 MHZ
Airport Navaids
Type VOR-DME Name Garitsa Frequency 108800 KHZ
Type NDB Name Kerkira Frequency 403 KHZ
Type VOR-DME Name Kerkira Frequency 114700 KHZ
Airport Weather Information & NOTAM
ADDS - METARS form results

(1119 UTC 20 April 2019)
Data provider http://aviationweather.gov/metar/data/
 
METAR text: LGKR 201050Z 20003KT 9999 FEW030 22/07 Q1022 NOSIG
Conditions at: LGKR (IOANNIS KAPODIST, GR) observed 1050 UTC 20 April 2019
Temperature: 22.0°C (72°F)
Dewpoint: 7.0°C (45°F) [RH = 38%]
Pressure (altimeter): 30.18 inches Hg (1022.0 mb)
Winds: from the SSW (200 degrees) at 3 MPH (3 knots; 1.5 m/s)
Visibility: 6 or more miles (10+ km)
Ceiling: at least 12,000 feet AGL
Clouds: few clouds at 3000 feet AGL
Weather: no significant weather observed at this time

METAR text: LGKR 201020Z 19003KT 9999 FEW030 21/10 Q1022 NOSIG
Conditions at: LGKR (IOANNIS KAPODIST, GR) observed 1020 UTC 20 April 2019
Temperature: 21.0°C (70°F)
Dewpoint: 10.0°C (50°F) [RH = 49%]
Pressure (altimeter): 30.18 inches Hg (1022.0 mb)
Winds: from the S (190 degrees) at 3 MPH (3 knots; 1.5 m/s)
Visibility: 6 or more miles (10+ km)
Ceiling: at least 12,000 feet AGL
Clouds: few clouds at 3000 feet AGL
Weather: no significant weather observed at this time

Forecast for: LGKR (IOANNIS KAPODIST, GR)
Text: TAF LGKR 201100Z 2012/2112 14010KT 9999 FEW020
Forecast period: 1200 UTC 20 April 2019 to 0600 UTC 21 April 2019
Forecast type: FROM: standard forecast or significant change
Winds: from the SE (140 degrees) at 12 MPH (10 knots; 5.1 m/s)
Visibility: 6 or more miles 10+ km)
Ceiling: at least 12,000 feet AGL
Clouds: few clouds at 2000 feet AGL
Weather: no significant weather forecast for this period
Text: BECMG 2106/2108 SCT020 BKN070
Forecast period: 0600 to 1200 UTC 21 April 2019
Forecast type: BECOMING: Conditions expected to become as follows by 0800 UTC 21 April 2019
Winds: from the SE (140 degrees) at 12 MPH (10 knots; 5.1 m/s)
Visibility: 6 or more miles 10+ km)
Ceiling: 7000 feet AGL
Clouds: scattered clouds at 2000 feet AGL
broken clouds at 7000 feet AGL
Weather: no significant weather forecast for this period